createdAt,value
2019-05-13T00:03:10.422Z,0
2019-05-13T00:03:50.987Z,0
2019-05-13T00:04:33.630Z,0
2019-05-13T00:05:14.330Z,0
2019-05-13T00:05:53.548Z,0
2019-05-13T00:06:34.283Z,0
2019-05-13T00:07:13.868Z,0
2019-05-13T00:07:54.437Z,0
2019-05-13T00:08:35.003Z,0
2019-05-13T00:15:20.673Z,0
2019-05-13T00:16:03.504Z,0
2019-05-13T00:16:44.305Z,0
2019-05-13T00:17:23.657Z,0
2019-05-13T00:18:03.817Z,0
2019-05-13T00:18:44.362Z,0
2019-05-13T00:19:24.045Z,0
2019-05-13T00:22:47.046Z,0
2019-05-13T00:23:27.641Z,0
2019-05-13T00:24:08.216Z,0
2019-05-13T00:24:48.777Z,0
2019-05-13T00:25:29.378Z,0
2019-05-13T00:26:09.955Z,0
2019-05-13T00:26:50.513Z,0
2019-05-13T00:27:33.367Z,0
2019-05-13T00:28:11.673Z,0
2019-05-13T00:34:57.419Z,0
2019-05-13T00:35:37.974Z,0
2019-05-13T00:36:18.536Z,0
2019-05-13T00:37:08.458Z,0
2019-05-13T00:37:39.725Z,0
2019-05-13T00:38:20.275Z,0
2019-05-13T00:39:00.892Z,0
2019-05-13T00:39:43.588Z,0
2019-05-13T00:46:27.213Z,0
2019-05-13T00:47:07.798Z,0
2019-05-13T00:47:48.373Z,0
2019-05-13T00:48:29.757Z,0
2019-05-13T00:49:09.528Z,0
2019-05-13T00:49:50.100Z,0
2019-05-13T00:50:30.673Z,0
2019-05-13T00:51:11.253Z,0
2019-05-13T00:51:53.360Z,0
2019-05-13T00:57:57.073Z,0
2019-05-13T00:58:37.715Z,0
2019-05-13T00:59:18.313Z,0
2019-05-13T00:59:58.878Z,0
2019-05-13T01:00:39.493Z,0
2019-05-13T01:01:20.172Z,0
2019-05-13T01:02:00.679Z,0
2019-05-13T01:02:41.293Z,0
2019-05-13T01:03:24.270Z,0
2019-05-13T01:09:27.018Z,0
2019-05-13T01:10:07.612Z,0
2019-05-13T01:10:48.169Z,0
2019-05-13T01:11:28.734Z,0
2019-05-13T01:12:09.332Z,0
2019-05-13T01:12:49.875Z,0
2019-05-13T01:13:30.457Z,0
2019-05-13T01:14:11.006Z,0
2019-05-13T01:14:53.403Z,0
2019-05-13T01:21:37.269Z,0
2019-05-13T01:22:17.858Z,0
2019-05-13T01:22:58.405Z,0
2019-05-13T01:23:38.979Z,0
2019-05-13T01:24:19.562Z,0
2019-05-13T01:25:00.141Z,0
2019-05-13T01:25:40.703Z,0
2019-05-13T01:26:23.164Z,0
2019-05-13T01:27:03.768Z,0
2019-05-13T01:33:06.949Z,0
2019-05-13T01:33:47.573Z,0
2019-05-13T01:34:28.117Z,0
2019-05-13T01:35:08.661Z,0
2019-05-13T01:35:49.239Z,0
2019-05-13T01:36:29.802Z,0
2019-05-13T01:37:10.404Z,0
2019-05-13T01:37:50.972Z,0
2019-05-13T01:38:31.538Z,0
2019-05-13T01:45:17.219Z,0
2019-05-13T01:45:57.777Z,0
2019-05-13T01:46:38.366Z,0
2019-05-13T01:47:18.959Z,0
2019-05-13T01:47:59.511Z,0
2019-05-13T01:48:40.095Z,0
2019-05-13T01:49:20.702Z,0
2019-05-13T01:50:03.398Z,0
2019-05-13T01:50:43.769Z,0
2019-05-13T01:56:47.111Z,0
2019-05-13T01:57:27.689Z,0
2019-05-13T01:58:08.252Z,0
2019-05-13T01:58:48.799Z,0
2019-05-13T01:59:29.366Z,0
2019-05-13T02:00:09.936Z,0
2019-05-13T02:00:51.674Z,0
2019-05-13T02:01:33.461Z,0
2019-05-13T02:02:13.412Z,0
2019-05-13T02:08:57.289Z,0
2019-05-13T02:09:37.839Z,0
2019-05-13T02:10:18.392Z,0
2019-05-13T02:10:58.947Z,0
2019-05-13T02:11:39.523Z,0
2019-05-13T02:12:20.090Z,0
2019-05-13T02:13:00.701Z,0
2019-05-13T02:13:41.252Z,0
2019-05-13T02:14:23.592Z,0
2019-05-13T02:19:47.068Z,0
2019-05-13T02:20:27.679Z,0
2019-05-13T02:21:08.261Z,0
2019-05-13T02:21:48.839Z,0
2019-05-13T02:22:29.391Z,0
2019-05-13T02:23:09.987Z,0
2019-05-13T02:23:50.557Z,0
2019-05-13T02:24:31.096Z,0
2019-05-13T02:25:13.747Z,0
2019-05-13T02:31:57.398Z,0
2019-05-13T02:32:37.963Z,0
2019-05-13T02:33:18.535Z,0
2019-05-13T02:34:02.125Z,0
2019-05-13T02:34:43.231Z,0
2019-05-13T02:35:22.915Z,0
2019-05-13T02:36:02.877Z,0
2019-05-13T02:36:43.829Z,0
2019-05-13T02:37:23.133Z,0
2019-05-13T02:43:27.082Z,0
2019-05-13T02:44:07.664Z,0
2019-05-13T02:44:48.231Z,0
2019-05-13T02:45:28.820Z,0
2019-05-13T02:46:12.558Z,0
2019-05-13T02:46:52.404Z,0
2019-05-13T02:47:33.006Z,0
2019-05-13T02:48:12.544Z,0
2019-05-13T02:48:52.650Z,0
2019-05-13T02:55:37.292Z,0
2019-05-13T02:56:17.897Z,0
2019-05-13T02:56:58.451Z,0
2019-05-13T02:57:43.093Z,0
2019-05-13T02:58:23.595Z,0
2019-05-13T02:59:03.414Z,0
2019-05-13T02:59:42.187Z,0
2019-05-13T03:00:23.543Z,0
2019-05-13T03:01:03.046Z,0
2019-05-13T03:06:27.132Z,0
2019-05-13T03:07:07.695Z,0
2019-05-13T03:07:48.244Z,0
2019-05-13T03:08:45.731Z,0
2019-05-13T03:09:11.776Z,0
2019-05-13T03:09:52.636Z,0
2019-05-13T03:10:33.037Z,0
2019-05-13T03:11:12.552Z,0
2019-05-13T03:11:53.479Z,0
2019-05-13T03:17:57.817Z,0
2019-05-13T03:18:38.400Z,0
2019-05-13T03:19:22.167Z,0
2019-05-13T03:23:02.661Z,5
2019-05-13T03:23:42.847Z,5
2019-05-13T03:24:22.706Z,5
2019-05-13T03:25:03.083Z,5
2019-05-13T03:28:23.836Z,5
2019-05-13T03:29:04.426Z,5
2019-05-13T03:29:45.007Z,5
2019-05-13T03:30:26.345Z,5
2019-05-13T03:31:07.824Z,5
2019-05-13T03:31:47.224Z,5
2019-05-13T03:32:34.561Z,10
2019-05-13T03:33:10.641Z,10
2019-05-13T03:33:48.454Z,10
2019-05-13T03:40:34.171Z,10
2019-05-13T03:41:14.719Z,10
2019-05-13T03:41:55.358Z,10
2019-05-13T03:42:35.939Z,15
2019-05-13T03:43:16.495Z,15
2019-05-13T03:43:57.059Z,15
2019-05-13T03:44:37.642Z,15
2019-05-13T03:45:18.183Z,15
2019-05-13T03:52:03.899Z,20
2019-05-13T03:52:44.456Z,20
2019-05-13T03:53:25.015Z,20
2019-05-13T03:54:05.691Z,20
2019-05-13T03:54:46.264Z,20
2019-05-13T03:55:26.832Z,20
2019-05-13T03:56:07.398Z,20
2019-05-13T03:56:47.995Z,20
2019-05-13T03:57:28.545Z,20
2019-05-13T04:03:33.737Z,25
2019-05-13T04:04:14.295Z,25
2019-05-13T04:04:58.240Z,25
2019-05-13T04:05:35.431Z,25
2019-05-13T04:06:15.997Z,25
2019-05-13T04:06:56.551Z,25
2019-05-13T04:07:37.114Z,25
2019-05-13T04:08:17.687Z,30
2019-05-13T04:09:16.937Z,30
2019-05-13T04:15:43.881Z,30
2019-05-13T04:16:24.432Z,35
2019-05-13T04:17:04.996Z,35
2019-05-13T04:17:45.799Z,35
2019-05-13T04:18:26.373Z,35
2019-05-13T04:19:06.949Z,35
2019-05-13T04:19:47.535Z,35
2019-05-13T04:20:28.112Z,35
2019-05-13T04:21:08.682Z,35
2019-05-13T04:27:13.857Z,40
2019-05-13T04:27:54.416Z,40
2019-05-13T04:28:34.980Z,40
2019-05-13T04:29:15.569Z,40
2019-05-13T04:29:56.136Z,40
2019-05-13T04:30:36.713Z,40
2019-05-13T04:31:17.288Z,40
2019-05-13T04:31:57.847Z,45
2019-05-13T04:32:38.436Z,45
2019-05-13T04:38:44.640Z,50
2019-05-13T04:39:39.413Z,50
2019-05-13T04:40:04.897Z,50
2019-05-13T04:40:45.481Z,50
2019-05-13T04:41:26.047Z,50
2019-05-13T04:42:06.646Z,50
2019-05-13T04:42:47.181Z,50
2019-05-13T04:43:30.582Z,50
2019-05-13T04:44:08.394Z,50
2019-05-13T04:50:54.108Z,55
2019-05-13T04:51:34.666Z,60
2019-05-13T04:52:15.253Z,60
2019-05-13T04:52:55.854Z,60
2019-05-13T04:53:36.429Z,60
2019-05-13T04:54:16.999Z,60
2019-05-13T04:54:57.563Z,60
2019-05-13T04:55:38.137Z,60
2019-05-13T05:02:36.464Z,70
2019-05-13T05:03:04.599Z,70
2019-05-13T05:03:46.323Z,70
2019-05-13T05:04:30.331Z,70
2019-05-13T05:05:06.303Z,70
2019-05-13T05:05:46.881Z,70
2019-05-13T05:06:27.459Z,70
2019-05-13T05:07:08.059Z,75
2019-05-13T05:07:48.635Z,75
2019-05-13T05:13:24.749Z,80
2019-05-13T05:14:05.298Z,80
2019-05-13T05:14:45.870Z,80
2019-05-13T05:15:26.410Z,80
2019-05-13T05:19:32.015Z,85
2019-05-13T05:20:12.211Z,80
2019-05-13T05:20:51.868Z,85
2019-05-13T05:21:32.128Z,85
2019-05-13T05:22:13.382Z,85
2019-05-13T05:22:52.876Z,85
2019-05-13T05:23:33.414Z,90
2019-05-13T05:24:13.971Z,90
2019-05-13T05:31:02.097Z,145
2019-05-13T05:31:41.410Z,500
2019-05-13T05:32:21.392Z,1040
2019-05-13T05:33:02.052Z,1585
2019-05-13T05:33:41.902Z,1635
2019-05-13T05:34:22.508Z,1555
2019-05-13T05:35:03.063Z,1410
2019-05-13T05:35:43.612Z,1460
2019-05-13T05:36:24.164Z,1625
2019-05-13T05:42:29.324Z,1675
2019-05-13T05:43:11.577Z,1650
2019-05-13T05:43:52.162Z,1660
2019-05-13T05:44:32.354Z,1690
2019-05-13T05:45:11.704Z,1785
2019-05-13T05:45:52.229Z,1840
2019-05-13T05:46:32.802Z,1810
2019-05-13T05:47:13.412Z,1805
2019-05-13T05:47:53.964Z,1825
2019-05-13T05:53:51.637Z,1880
2019-05-13T05:54:31.741Z,1855
2019-05-13T05:55:11.429Z,1800
2019-05-13T05:55:51.982Z,1865
2019-05-13T05:59:14.898Z,1815
2019-05-13T05:59:55.467Z,1805
2019-05-13T06:00:36.075Z,1860
2019-05-13T06:01:16.681Z,1965
2019-05-13T06:01:57.273Z,1970
2019-05-13T06:02:37.841Z,1880
2019-05-13T06:03:18.394Z,1825
2019-05-13T06:04:01.298Z,1840
2019-05-13T06:04:42.992Z,1850
2019-05-13T06:10:05.150Z,1930
2019-05-13T06:10:50.042Z,1945
2019-05-13T06:11:26.353Z,1945
2019-05-13T06:12:06.928Z,1985
2019-05-13T06:12:47.526Z,2020
2019-05-13T06:13:28.128Z,2100
2019-05-13T06:14:11.024Z,2030
2019-05-13T06:14:52.090Z,2005
2019-05-13T06:15:31.441Z,1955
2019-05-13T06:21:35.237Z,1930
2019-05-13T06:22:15.844Z,1905
2019-05-13T06:22:56.439Z,2005
2019-05-13T06:23:37.021Z,2020
2019-05-13T06:24:17.646Z,2015
2019-05-13T06:24:58.215Z,1990
2019-05-13T06:25:38.796Z,1950
2019-05-13T06:26:23.230Z,1885
2019-05-13T06:32:26.357Z,2090
2019-05-13T06:33:05.465Z,2090
2019-05-13T06:33:46.069Z,2155
2019-05-13T06:34:26.664Z,2085
2019-05-13T06:35:07.273Z,2060
2019-05-13T06:35:47.882Z,1960
2019-05-13T06:36:28.443Z,1765
2019-05-13T06:37:11.176Z,1795
2019-05-13T06:37:51.802Z,2000
2019-05-13T06:43:14.794Z,1965
2019-05-13T06:43:55.664Z,1920
2019-05-13T06:44:36.188Z,1880
2019-05-13T06:45:16.793Z,1920
2019-05-13T06:45:57.363Z,2015
2019-05-13T06:46:37.980Z,2025
2019-05-13T06:47:18.555Z,2035
2019-05-13T06:47:59.136Z,1970
2019-05-13T06:48:41.374Z,1980
2019-05-13T06:53:55.443Z,2055
2019-05-13T06:54:36.081Z,2075
2019-05-13T06:55:16.727Z,2115
2019-05-13T06:55:57.256Z,2065
2019-05-13T06:59:22.297Z,2135
2019-05-13T07:00:01.749Z,2085
2019-05-13T07:00:42.689Z,2035
2019-05-13T07:01:22.399Z,2005
2019-05-13T07:05:02.417Z,1685
2019-05-13T07:05:42.575Z,1630
2019-05-13T07:06:23.083Z,1610
2019-05-13T07:07:12.189Z,1515
2019-05-13T07:10:26.594Z,1280
2019-05-13T07:11:17.489Z,1140
2019-05-13T07:11:47.912Z,1030
2019-05-13T07:12:28.474Z,950
2019-05-13T07:13:11.064Z,880
2019-05-13T07:13:51.597Z,820
2019-05-13T07:14:32.336Z,775
2019-05-13T07:15:11.526Z,740
2019-05-13T07:15:52.111Z,710
2019-05-13T07:21:56.937Z,630
2019-05-13T07:22:37.551Z,635
2019-05-13T07:23:18.178Z,630
2019-05-13T07:23:58.795Z,630
2019-05-13T07:24:41.305Z,630
2019-05-13T07:25:22.161Z,620
2019-05-13T07:26:01.663Z,615
2019-05-13T07:26:41.867Z,600
2019-05-13T07:32:46.581Z,565
2019-05-13T07:33:27.167Z,560
2019-05-13T07:34:07.738Z,565
2019-05-13T07:34:48.316Z,575
2019-05-13T07:35:31.926Z,585
2019-05-13T07:36:12.066Z,590
2019-05-13T07:36:51.264Z,590
2019-05-13T07:37:31.766Z,585
2019-05-13T07:38:11.742Z,575
2019-05-13T07:44:16.663Z,545
2019-05-13T07:44:57.260Z,540
2019-05-13T07:45:37.846Z,545
2019-05-13T07:46:18.410Z,540
2019-05-13T07:46:58.986Z,540
2019-05-13T07:47:41.623Z,535
2019-05-13T07:48:23.991Z,540
2019-05-13T07:49:02.075Z,545
2019-05-13T07:49:41.946Z,540
2019-05-13T07:55:46.632Z,510
2019-05-13T07:56:27.204Z,440
2019-05-13T07:57:07.876Z,115
2019-05-13T07:57:48.475Z,465
2019-05-13T07:58:29.061Z,425
2019-05-13T07:59:11.903Z,400
2019-05-13T07:59:52.122Z,390
2019-05-13T08:00:32.539Z,390
2019-05-13T08:01:12.337Z,380
2019-05-13T08:07:16.739Z,375
2019-05-13T08:07:57.303Z,365
2019-05-13T08:08:37.986Z,355
2019-05-13T08:09:21.349Z,360
2019-05-13T08:10:02.880Z,360
2019-05-13T08:10:41.406Z,355
2019-05-13T08:11:22.326Z,350
2019-05-13T08:12:09.021Z,340
2019-05-13T08:18:07.363Z,320
2019-05-13T08:18:47.964Z,315
2019-05-13T08:19:28.616Z,310
2019-05-13T08:20:09.199Z,200
2019-05-13T08:20:52.192Z,310
2019-05-13T08:21:32.199Z,300
2019-05-13T08:22:12.083Z,290
2019-05-13T08:29:01.457Z,130
2019-05-13T08:29:37.398Z,175
2019-05-13T08:30:18.398Z,135
2019-05-13T08:30:58.604Z,130
2019-05-13T08:31:41.187Z,120
2019-05-13T08:32:22.046Z,125
2019-05-13T08:33:01.710Z,160
2019-05-13T08:33:42.386Z,140
2019-05-13T08:40:26.863Z,120
2019-05-13T08:41:09.708Z,210
2019-05-13T08:41:48.023Z,215
2019-05-13T08:42:28.660Z,210
2019-05-13T08:43:11.473Z,210
2019-05-13T08:43:52.110Z,185
2019-05-13T08:44:32.191Z,215
2019-05-13T08:45:12.007Z,195
2019-05-13T08:51:16.624Z,175
2019-05-13T08:51:57.169Z,155
2019-05-13T08:52:37.742Z,155
2019-05-13T08:53:18.339Z,180
2019-05-13T08:53:58.906Z,180
2019-05-13T08:54:41.751Z,180
2019-05-13T08:55:21.384Z,180
2019-05-13T08:56:01.598Z,180
2019-05-13T08:56:41.722Z,175
2019-05-13T09:02:46.920Z,130
2019-05-13T09:03:27.504Z,165
2019-05-13T09:04:08.080Z,160
2019-05-13T09:04:48.739Z,155
2019-05-13T09:05:31.303Z,145
2019-05-13T09:06:11.602Z,135
2019-05-13T09:06:52.349Z,105
2019-05-13T09:07:31.995Z,140
2019-05-13T09:13:36.537Z,165
2019-05-13T09:14:17.982Z,185
2019-05-13T09:14:58.835Z,185
2019-05-13T09:15:41.972Z,180
2019-05-13T09:16:21.413Z,175
2019-05-13T09:17:01.756Z,165
2019-05-13T09:17:42.439Z,165
2019-05-13T09:23:46.593Z,175
2019-05-13T09:24:33.889Z,180
2019-05-13T09:25:07.721Z,175
2019-05-13T09:25:48.329Z,175
2019-05-13T09:26:31.325Z,170
2019-05-13T09:27:11.751Z,160
2019-05-13T09:27:51.312Z,120
2019-05-13T09:28:32.432Z,115
2019-05-13T09:29:11.950Z,135
2019-05-13T09:35:16.586Z,165
2019-05-13T09:35:57.151Z,165
2019-05-13T09:36:37.683Z,160
2019-05-13T09:37:18.265Z,165
2019-05-13T09:37:58.806Z,170
2019-05-13T09:38:41.789Z,170
2019-05-13T09:39:21.635Z,170
2019-05-13T09:40:02.327Z,140
2019-05-13T09:40:42.237Z,150
2019-05-13T09:47:28.399Z,165
2019-05-13T09:48:07.425Z,170
2019-05-13T09:48:47.999Z,170
2019-05-13T09:49:28.557Z,170
2019-05-13T09:50:25.506Z,165
2019-05-13T09:50:51.630Z,160
2019-05-13T09:51:32.318Z,155
2019-05-13T09:52:11.831Z,155
2019-05-13T09:52:51.855Z,150
2019-05-13T09:58:56.652Z,160
2019-05-13T09:59:37.257Z,160
2019-05-13T10:00:17.828Z,165
2019-05-13T10:00:58.407Z,135
2019-05-13T10:01:38.962Z,130
2019-05-13T10:02:21.404Z,130
2019-05-13T10:03:02.116Z,130
2019-05-13T10:03:53.562Z,130
2019-05-13T10:04:22.229Z,135
2019-05-13T10:10:26.552Z,120
2019-05-13T10:11:07.102Z,115
2019-05-13T10:11:47.665Z,110
2019-05-13T10:12:28.281Z,110
2019-05-13T10:13:12.468Z,105
2019-05-13T10:13:51.468Z,95
2019-05-13T10:14:32.616Z,90
2019-05-13T10:15:12.536Z,90
2019-05-13T10:15:51.198Z,85
2019-05-13T10:21:56.693Z,85
2019-05-13T10:22:37.284Z,90
2019-05-13T10:23:17.850Z,110
2019-05-13T10:23:58.923Z,140
2019-05-13T10:24:39.018Z,140
2019-05-13T10:25:22.245Z,140
2019-05-13T10:26:02.863Z,120
2019-05-13T10:26:42.853Z,110
2019-05-13T10:27:22.267Z,110
2019-05-13T10:33:26.496Z,115
2019-05-13T10:34:07.128Z,115
2019-05-13T10:34:47.725Z,120
2019-05-13T10:35:28.307Z,115
2019-05-13T10:36:08.873Z,120
2019-05-13T10:36:51.354Z,135
2019-05-13T10:37:29.988Z,120
2019-05-13T10:38:13.339Z,115
2019-05-13T10:38:52.138Z,105
2019-05-13T10:44:56.471Z,130
2019-05-13T10:45:37.063Z,130
2019-05-13T10:46:17.622Z,130
2019-05-13T10:46:58.247Z,130
2019-05-13T10:47:38.867Z,130
2019-05-13T10:48:21.358Z,130
2019-05-13T10:49:01.870Z,130
2019-05-13T10:52:39.376Z,125
2019-05-13T10:53:21.973Z,120
2019-05-13T10:54:00.722Z,120
2019-05-13T10:54:41.637Z,120
2019-05-13T10:58:04.139Z,90
2019-05-13T10:58:44.720Z,90
2019-05-13T10:59:25.259Z,95
2019-05-13T11:00:05.815Z,95
2019-05-13T11:00:46.422Z,90
2019-05-13T11:01:27.068Z,85
2019-05-13T11:02:07.656Z,80
2019-05-13T11:02:48.197Z,75
2019-05-13T11:03:28.790Z,75
2019-05-13T11:08:54.271Z,90
2019-05-13T11:09:34.877Z,90
2019-05-13T11:10:15.494Z,70
2019-05-13T11:10:56.225Z,70
2019-05-13T11:11:36.876Z,95
2019-05-13T11:17:04.704Z,125
2019-05-13T11:17:45.254Z,130
2019-05-13T11:18:25.891Z,135
2019-05-13T11:19:06.481Z,135
2019-05-13T11:19:47.062Z,135
2019-05-13T11:20:27.753Z,110
2019-05-13T11:21:08.324Z,105
2019-05-13T11:27:58.290Z,105
2019-05-13T11:28:34.921Z,100
2019-05-13T11:29:15.497Z,100
2019-05-13T11:29:56.084Z,95
2019-05-13T11:30:36.672Z,95
2019-05-13T11:31:17.233Z,90
2019-05-13T11:31:57.794Z,90
2019-05-13T11:32:38.349Z,95
2019-05-13T11:33:18.924Z,100
2019-05-13T11:39:24.356Z,110
2019-05-13T11:40:04.941Z,110
2019-05-13T11:40:45.685Z,115
2019-05-13T11:41:26.312Z,105
2019-05-13T11:42:06.914Z,105
2019-05-13T11:42:47.471Z,135
2019-05-13T11:43:28.157Z,105
2019-05-13T11:44:13.964Z,110
2019-05-13T11:50:14.358Z,135
2019-05-13T11:50:54.951Z,135
2019-05-13T11:51:35.527Z,135
2019-05-13T11:52:16.167Z,130
2019-05-13T11:52:56.795Z,125
2019-05-13T11:53:37.949Z,125
2019-05-13T11:54:17.945Z,120
2019-05-13T11:54:58.570Z,115
2019-05-13T12:01:03.974Z,105
2019-05-13T12:01:44.555Z,100
2019-05-13T12:02:25.129Z,100
2019-05-13T12:03:05.777Z,100
2019-05-13T12:03:46.388Z,100
2019-05-13T12:04:26.929Z,100
2019-05-13T12:05:07.503Z,100
2019-05-13T12:05:48.087Z,100
2019-05-13T12:06:28.658Z,105
2019-05-13T12:13:14.489Z,105
2019-05-13T12:13:55.160Z,110
2019-05-13T12:14:48.288Z,115
2019-05-13T12:15:26.769Z,120
2019-05-13T12:15:56.843Z,120
2019-05-13T12:16:37.437Z,125
2019-05-13T12:17:18.019Z,125
2019-05-13T12:17:59.426Z,125
2019-05-13T12:24:10.287Z,125
2019-05-13T12:24:44.587Z,115
2019-05-13T12:25:25.262Z,125
2019-05-13T12:26:05.845Z,70
2019-05-13T12:26:46.426Z,125
2019-05-13T12:27:27.037Z,125
2019-05-13T12:28:07.645Z,130
2019-05-13T12:28:53.160Z,130
2019-05-13T12:34:54.355Z,140
2019-05-13T12:35:35.004Z,145
2019-05-13T12:36:18.828Z,135
2019-05-13T12:36:56.194Z,90
2019-05-13T12:37:36.753Z,90
2019-05-13T12:38:17.345Z,90
2019-05-13T12:38:57.903Z,85
2019-05-13T12:39:38.491Z,85
2019-05-13T12:46:25.010Z,70
2019-05-13T12:47:04.998Z,70
2019-05-13T12:47:45.658Z,70
2019-05-13T12:48:26.258Z,70
2019-05-13T12:49:06.927Z,70
2019-05-13T12:49:47.625Z,65
2019-05-13T12:50:28.285Z,65
2019-05-13T12:55:56.779Z,115
2019-05-13T12:56:34.683Z,125
2019-05-13T12:57:16.045Z,120
2019-05-13T13:00:55.059Z,125
2019-05-13T13:01:35.672Z,125
2019-05-13T13:02:16.267Z,130
2019-05-13T13:02:56.829Z,130
2019-05-13T13:05:08.818Z,85
2019-05-13T13:05:43.098Z,85
2019-05-13T13:06:30.321Z,90
2019-05-13T13:07:02.024Z,85
2019-05-13T13:07:42.725Z,90
2019-05-13T13:08:38.146Z,95
2019-05-13T13:09:03.841Z,90
2019-05-13T13:09:44.408Z,90
2019-05-13T13:15:52.442Z,100
2019-05-13T13:16:34.463Z,100
2019-05-13T13:17:12.808Z,100
2019-05-13T13:17:53.892Z,105
2019-05-13T13:18:32.155Z,105
2019-05-13T13:19:14.483Z,100
2019-05-13T13:19:54.894Z,100
2019-05-13T13:20:40.966Z,100
2019-05-13T13:27:26.787Z,155
2019-05-13T13:28:10.390Z,155
2019-05-13T13:28:43.340Z,150
2019-05-13T13:29:22.124Z,150
2019-05-13T13:30:07.218Z,150
2019-05-13T13:30:44.072Z,155
2019-05-13T13:31:24.933Z,155
2019-05-13T13:32:04.114Z,155
2019-05-13T13:36:52.527Z,80
2019-05-13T13:37:34.804Z,85
2019-05-13T13:38:12.383Z,90
2019-05-13T13:38:56.024Z,95
2019-05-13T13:39:34.343Z,100
2019-05-13T13:43:41.918Z,110
2019-05-13T13:44:24.481Z,125
2019-05-13T13:45:05.940Z,115
2019-05-13T13:46:06.434Z,110
2019-05-13T13:46:36.237Z,160
2019-05-13T13:47:03.657Z,150
2019-05-13T13:51:49.872Z,85
2019-05-13T13:52:33.462Z,145
2019-05-13T13:53:13.852Z,75
2019-05-13T13:53:56.384Z,135
2019-05-13T13:54:33.892Z,135
2019-05-13T13:55:15.688Z,120
2019-05-13T14:01:19.722Z,105
2019-05-13T14:01:55.434Z,125
2019-05-13T14:02:36.813Z,130
2019-05-13T14:03:17.090Z,130
2019-05-13T14:03:57.858Z,120
2019-05-13T14:04:38.552Z,125
2019-05-13T14:05:19.387Z,60
2019-05-13T14:06:04.494Z,60
2019-05-13T14:07:30.817Z,60
2019-05-13T14:08:02.249Z,60
2019-05-13T14:14:48.137Z,65
2019-05-13T14:15:31.116Z,60
2019-05-13T14:16:22.262Z,65
2019-05-13T14:16:51.780Z,65
2019-05-13T14:17:31.786Z,70
2019-05-13T14:18:12.425Z,70
2019-05-13T14:22:58.345Z,120
2019-05-13T14:23:38.577Z,130
2019-05-13T14:24:21.287Z,145
2019-05-13T14:24:59.752Z,145
2019-05-13T14:25:42.006Z,155
2019-05-13T14:26:22.102Z,155
2019-05-13T14:27:02.848Z,90
2019-05-13T14:27:42.332Z,95
2019-05-13T14:33:07.928Z,75
2019-05-13T14:33:48.609Z,75
2019-05-13T14:34:31.877Z,75
2019-05-13T14:35:12.185Z,75
2019-05-13T14:35:52.946Z,75
2019-05-13T14:36:31.248Z,135
2019-05-13T14:37:11.946Z,115
2019-05-13T14:37:52.499Z,80
2019-05-13T14:42:37.743Z,140
2019-05-13T14:43:18.438Z,115
2019-05-13T14:43:59.068Z,70
2019-05-13T14:44:39.645Z,65
2019-05-13T14:45:23.065Z,65
2019-05-13T14:46:02.204Z,60
2019-05-13T14:46:46.953Z,60
2019-05-13T14:47:21.978Z,55
2019-05-13T14:48:02.549Z,55
2019-05-13T14:53:28.226Z,55
2019-05-13T14:54:08.772Z,55
2019-05-13T14:54:51.386Z,60
2019-05-13T14:55:31.894Z,60
2019-05-13T14:56:14.000Z,60
2019-05-13T14:56:51.995Z,60
2019-05-13T14:57:32.204Z,65
2019-05-13T14:58:12.232Z,65
2019-05-13T15:04:17.738Z,70
2019-05-13T15:04:58.298Z,70
2019-05-13T15:05:38.860Z,65
2019-05-13T15:06:21.972Z,65
2019-05-13T15:07:00.051Z,65
2019-05-13T15:07:42.105Z,65
2019-05-13T15:08:25.070Z,65
2019-05-13T15:09:02.007Z,65
2019-05-13T15:09:42.524Z,70
2019-05-13T15:15:48.118Z,115
2019-05-13T15:16:31.092Z,125
2019-05-13T15:17:09.359Z,125
2019-05-13T15:17:51.855Z,125
2019-05-13T15:18:32.669Z,125
2019-05-13T15:19:11.942Z,120
2019-05-13T15:19:52.429Z,120
2019-05-13T15:20:33.176Z,120
2019-05-13T15:26:38.134Z,100
2019-05-13T15:27:18.757Z,55
2019-05-13T15:27:59.371Z,50
2019-05-13T15:28:41.500Z,115
2019-05-13T15:29:22.245Z,50
2019-05-13T15:30:14.099Z,50
2019-05-13T15:30:42.157Z,50
2019-05-13T15:31:22.491Z,50
2019-05-13T15:37:28.267Z,120
2019-05-13T15:38:08.845Z,125
2019-05-13T15:38:51.379Z,130
2019-05-13T15:39:31.530Z,130
2019-05-13T15:40:11.660Z,135
2019-05-13T15:40:52.134Z,130
2019-05-13T15:41:31.757Z,85
2019-05-13T15:42:12.384Z,65
2019-05-13T15:47:37.772Z,55
2019-05-13T15:48:18.447Z,50
2019-05-13T15:49:01.052Z,50
2019-05-13T15:49:39.739Z,50
2019-05-13T15:50:21.405Z,45
2019-05-13T15:51:02.016Z,45
2019-05-13T15:51:42.289Z,45
2019-05-13T15:52:22.681Z,45
2019-05-13T15:58:38.688Z,35
2019-05-13T15:59:09.026Z,35
2019-05-13T15:59:51.604Z,40
2019-05-13T16:00:29.772Z,40
2019-05-13T16:01:12.425Z,40
2019-05-13T16:01:52.435Z,45
2019-05-13T16:02:31.536Z,45
2019-05-13T16:03:12.323Z,50
2019-05-13T16:03:52.778Z,50
2019-05-13T16:09:58.154Z,115
2019-05-13T16:10:38.714Z,115
2019-05-13T16:11:21.639Z,115
2019-05-13T16:12:01.481Z,115
2019-05-13T16:12:40.487Z,115
2019-05-13T16:13:22.148Z,110
2019-05-13T16:14:02.198Z,110
2019-05-13T16:14:42.289Z,105
2019-05-13T16:20:48.062Z,45
2019-05-13T16:21:28.739Z,30
2019-05-13T16:22:11.530Z,30
2019-05-13T16:22:52.496Z,25
2019-05-13T16:23:32.243Z,25
2019-05-13T16:24:11.905Z,25
2019-05-13T16:24:52.303Z,20
2019-05-13T16:25:32.171Z,20
2019-05-13T16:26:12.752Z,20
2019-05-13T16:32:18.010Z,15
2019-05-13T16:32:58.607Z,45
2019-05-13T16:33:41.561Z,45
2019-05-13T16:34:21.658Z,40
2019-05-13T16:35:02.531Z,35
2019-05-13T16:35:42.401Z,25
2019-05-13T16:36:22.173Z,15
2019-05-13T16:37:02.699Z,15
2019-05-13T16:43:48.189Z,20
2019-05-13T16:44:28.780Z,20
2019-05-13T16:45:11.964Z,20
2019-05-13T16:45:52.164Z,20
2019-05-13T16:46:31.529Z,25
2019-05-13T16:47:12.231Z,40
2019-05-13T16:47:57.002Z,60
2019-05-13T16:48:32.548Z,30
2019-05-13T16:55:18.241Z,35
2019-05-13T16:55:58.818Z,35
2019-05-13T16:56:41.786Z,35
2019-05-13T16:57:20.003Z,35
2019-05-13T16:58:01.918Z,35
2019-05-13T16:58:41.807Z,35
2019-05-13T16:59:21.781Z,30
2019-05-13T17:00:02.626Z,30
2019-05-13T17:05:27.817Z,20
2019-05-13T17:06:08.607Z,20
2019-05-13T17:06:49.251Z,15
2019-05-13T17:07:31.655Z,15
2019-05-13T17:08:10.416Z,15
2019-05-13T17:08:51.600Z,15
2019-05-13T17:09:32.260Z,15
2019-05-13T17:10:12.667Z,15
2019-05-13T17:14:05.376Z,15
2019-05-13T17:14:42.635Z,15
2019-05-13T17:15:26.079Z,15
2019-05-13T17:16:03.857Z,15
2019-05-13T17:19:26.696Z,25
2019-05-13T17:20:07.268Z,25
2019-05-13T17:20:47.852Z,25
2019-05-13T17:21:28.433Z,25
2019-05-13T17:22:09.014Z,25
2019-05-13T17:22:51.247Z,25
2019-05-13T17:23:30.154Z,25
2019-05-13T17:24:12.368Z,25
2019-05-13T17:24:52.049Z,25
2019-05-13T17:30:56.665Z,30
2019-05-13T17:31:37.243Z,30
2019-05-13T17:32:17.801Z,30
2019-05-13T17:32:58.344Z,30
2019-05-13T17:33:38.931Z,30
2019-05-13T17:34:21.141Z,30
2019-05-13T17:35:02.098Z,30
2019-05-13T17:35:41.830Z,30
2019-05-13T17:36:21.707Z,30
2019-05-13T17:43:06.901Z,30
2019-05-13T17:43:47.445Z,30
2019-05-13T17:44:27.996Z,30
2019-05-13T17:45:08.596Z,30
2019-05-13T17:45:49.159Z,30
2019-05-13T17:46:32.436Z,30
2019-05-13T17:47:11.618Z,30
2019-05-13T17:47:51.991Z,30
2019-05-13T17:48:32.901Z,30
2019-05-13T17:54:36.660Z,25
2019-05-13T17:55:17.329Z,25
2019-05-13T17:55:57.903Z,25
2019-05-13T17:56:38.462Z,25
2019-05-13T17:57:21.416Z,25
2019-05-13T17:58:01.358Z,30
2019-05-13T17:58:42.011Z,30
2019-05-13T17:59:21.772Z,30
2019-05-13T18:00:01.293Z,30
2019-05-13T18:06:46.947Z,25
2019-05-13T18:07:27.521Z,25
2019-05-13T18:08:08.118Z,25
2019-05-13T18:08:48.687Z,25
2019-05-13T18:09:31.511Z,25
2019-05-13T18:10:11.983Z,25
2019-05-13T18:10:51.367Z,25
2019-05-13T18:11:30.948Z,20
2019-05-13T18:12:11.674Z,20
2019-05-13T18:18:17.253Z,15
2019-05-13T18:18:57.842Z,15
2019-05-13T18:19:38.398Z,15
2019-05-13T18:20:18.976Z,15
2019-05-13T18:21:01.426Z,15
2019-05-13T18:21:42.309Z,15
2019-05-13T18:22:20.785Z,15
2019-05-13T18:23:01.681Z,15
2019-05-13T18:31:41.977Z,10
2019-05-13T18:32:21.395Z,10
2019-05-13T18:33:01.405Z,5
2019-05-13T18:33:42.355Z,5
2019-05-13T18:38:18.090Z,5
2019-05-13T18:38:58.697Z,5
2019-05-13T18:39:41.406Z,5
2019-05-13T18:40:21.759Z,5